Time;durP1;ratioP1;P1;durP2;ratioP2;P2;SDS_P1;SDS_P2;PMS_P1;PMS_P2;Temp;Humidity;BMP_temperature;BMP_pressure;BME280_temperature;BME280_humidity;BME280_pressure;Samples;Min_cycle;Max_cycle;Signal;HPM_P1;HPM_P2
2022/09/04 15:29:46;;;;;;;2.97;2.40;;;;;;;25.39;43.38;97447.59;4915427;29;20239;-74
2022/09/04 15:33:20;;;;;;;3.43;2.27;;;;;;;25.22;43.52;97447.63;4892871;29;20224;-76
2022/09/04 15:36:41;;;;;;;3.10;2.30;;;;;;;25.21;44.45;97449.44;4892891;29;20198;-75
2022/09/04 15:40:10;;;;;;;4.03;2.80;;;;;;;25.30;43.94;97450.34;4892184;29;20201;-74
2022/09/04 15:43:26;;;;;;;2.30;2.10;;;;;;;25.24;43.92;97459.75;4892873;29;20196;-75
2022/09/04 15:46:30;;;;;;;2.67;2.30;;;;;;;24.95;45.11;97464.41;4900795;29;20212;-76
2022/09/04 15:49:17;;;;;;;3.47;2.63;;;;;;;24.85;46.12;97467.09;4910802;29;20210;-75
2022/09/04 15:52:29;;;;;;;6.73;3.40;;;;;;;24.95;45.33;97472.34;4907018;29;20716;-75
2022/09/04 15:55:51;;;;;;;3.70;3.10;;;;;;;24.95;45.22;97469.69;4905703;29;20194;-74
2022/09/04 15:59:14;;;;;;;3.37;2.60;;;;;;;24.83;45.79;97463.75;4911001;29;20263;-75
2022/09/04 16:02:20;;;;;;;2.93;2.33;;;;;;;24.86;45.27;97470.56;4910551;29;20687;-75
2022/09/04 16:05:43;;;;;;;3.17;2.57;;;;;;;24.87;45.57;97469.59;4909286;29;20203;-74
2022/09/04 16:09:18;;;;;;;3.73;2.20;;;;;;;24.80;45.45;97457.91;4909484;29;20224;-78
2022/09/04 16:12:13;;;;;;;55.43;26.60;;;;;;;24.80;46.02;97455.28;4911044;29;20251;-76
2022/09/04 16:15:46;;;;;;;163.53;108.27;;;;;;;24.61;46.48;97458.81;4910075;29;20583;-80
2022/09/04 16:18:50;;;;;;;349.03;261.43;;;;;;;24.69;46.59;97460.75;4877623;29;20324;-76
2022/09/04 16:22:03;;;;;;;190.73;134.57;;;;;;;24.56;45.37;97471.69;4906288;29;20296;-76
2022/09/04 16:24:52;;;;;;;72.43;46.10;;;;;;;24.39;46.63;97476.88;4910208;29;20196;-76
2022/09/04 16:27:24;;;;;;;162.87;104.43;;;;;;;24.35;47.94;97472.88;4909526;29;20748;-76
2022/09/04 16:30:01;;;;;;;120.13;82.13;;;;;;;24.48;48.00;97470.75;4912699;29;20264;-77
2022/09/04 16:32:34;;;;;;;209.90;160.33;;;;;;;24.34;49.18;97472.03;4929773;29;20698;-77
2022/09/04 16:35:07;;;;;;;204.83;129.00;;;;;;;24.24;50.61;97476.53;4929990;29;20252;-74
2022/09/04 16:37:50;;;;;;;49.23;35.07;;;;;;;23.91;51.11;97474.31;4930236;29;20658;-76
2022/09/04 16:40:17;;;;;;;257.07;130.93;;;;;;;23.89;51.18;97469.19;4911838;29;20627;-74
2022/09/04 16:43:00;;;;;;;170.37;103.47;;;;;;;23.80;52.21;97469.22;4912702;29;20648;-76
2022/09/04 16:45:39;;;;;;;108.33;51.63;;;;;;;23.86;51.77;97466.00;4911112;29;20207;-76
2022/09/04 16:48:32;;;;;;;315.93;201.43;;;;;;;23.79;52.09;97486.88;4911916;29;20673;-77
2022/09/04 16:51:34;;;;;;;388.37;289.10;;;;;;;23.49;52.29;97476.47;4929710;29;20205;-78
2022/09/04 16:54:23;;;;;;;677.30;579.33;;;;;;;23.59;52.58;97482.59;4927338;29;20202;-75
2022/09/04 16:56:59;;;;;;;566.10;414.37;;;;;;;23.80;51.90;97477.16;4929367;29;20193;-75
2022/09/04 16:59:57;;;;;;;656.20;518.03;;;;;;;23.95;52.73;97476.56;4930192;29;20189;-76
2022/09/04 17:02:51;;;;;;;263.20;203.80;;;;;;;24.01;51.86;97480.44;4881574;29;20225;-74
2022/09/04 17:05:33;;;;;;;12.20;6.00;;;;;;;24.03;51.73;97494.34;4929505;29;20211;-75
2022/09/04 17:08:17;;;;;;;5.63;4.27;;;;;;;23.56;53.01;97469.63;4930861;29;20245;-80
2022/09/04 17:10:56;;;;;;;8.07;5.37;;;;;;;23.55;52.88;97497.06;4897049;29;20260;-77
2022/09/04 17:13:37;;;;;;;6.73;3.50;;;;;;;23.41;52.46;97500.13;4930617;29;20197;-74
2022/09/04 17:16:22;;;;;;;5.40;2.67;;;;;;;23.27;53.73;97511.03;4913808;29;20206;-76
2022/09/04 17:18:53;;;;;;;6.70;3.77;;;;;;;23.21;53.32;97504.50;4930026;29;20186;-74
2022/09/04 17:25:12;;;;;;;4.03;3.40;;;;;;;23.39;53.33;97525.84;4929590;29;20251;-79
2022/09/04 17:28:11;;;;;;;3.30;3.00;;;;;;;23.29;54.20;97532.88;4928497;29;20227;-77
2022/09/04 17:31:22;;;;;;;3.37;2.30;;;;;;;23.17;55.20;97528.69;4929029;29;20191;-75
2022/09/04 17:34:08;;;;;;;4.20;2.60;;;;;;;23.17;54.81;97544.56;4929281;29;20198;-74
2022/09/04 17:37:11;;;;;;;4.03;2.33;;;;;;;23.03;55.19;97527.28;4914369;29;20281;-75
2022/09/04 17:40:07;;;;;;;4.20;2.63;;;;;;;23.08;55.29;97548.03;4929054;29;20208;-74
2022/09/04 17:43:06;;;;;;;3.47;2.50;;;;;;;23.09;55.42;97545.22;4915370;29;20199;-76
2022/09/04 17:46:05;;;;;;;3.70;2.80;;;;;;;23.09;55.92;97539.09;4928167;29;20441;-75
2022/09/04 17:48:40;;;;;;;3.37;2.17;;;;;;;23.20;55.74;97546.94;4910734;29;20457;-75
2022/09/04 17:51:16;;;;;;;4.37;2.93;;;;;;;23.02;56.55;97553.84;4929096;29;20275;-74
2022/09/04 17:53:50;;;;;;;4.00;2.47;;;;;;;22.72;56.72;97561.78;4927208;29;20228;-73
2022/09/04 17:56:30;;;;;;;4.73;2.80;;;;;;;22.72;57.32;97561.78;4929244;29;20213;-73
2022/09/04 17:59:15;;;;;;;3.00;2.20;;;;;;;22.29;58.53;97565.41;4932413;29;20200;-74
2022/09/04 18:01:50;;;;;;;3.27;2.70;;;;;;;22.24;58.85;97561.47;4932437;29;20281;-74
2022/09/04 18:04:30;;;;;;;3.70;2.40;;;;;;;22.25;58.66;97571.06;4932199;29;20203;-79
2022/09/04 18:07:04;;;;;;;3.00;2.40;;;;;;;22.06;59.32;97574.41;4932010;29;20322;-77
2022/09/04 18:10:00;;;;;;;3.07;2.57;;;;;;;22.24;59.49;97578.13;4932502;29;20851;-77
2022/09/04 18:12:43;;;;;;;3.43;2.53;;;;;;;22.24;59.82;97579.94;4932548;29;20582;-79
2022/09/04 18:15:38;;;;;;;4.70;2.40;;;;;;;22.30;58.76;97577.63;4932063;29;20194;-79
2022/09/04 18:18:26;;;;;;;4.53;2.40;;;;;;;22.27;59.29;97572.63;4899057;29;20239;-78
2022/09/04 18:21:06;;;;;;;4.57;2.63;;;;;;;22.25;59.08;97571.06;4932160;29;20206;-77
2022/09/04 18:23:37;;;;;;;4.63;2.60;;;;;;;22.25;59.45;97576.34;4932087;29;20204;-78
2022/09/04 18:26:20;;;;;;;4.27;2.67;;;;;;;22.14;59.92;97579.03;4932384;29;20679;-80
2022/09/04 18:29:03;;;;;;;3.73;3.17;;;;;;;22.06;60.25;97582.31;4931833;29;20271;-75
2022/09/04 18:31:56;;;;;;;3.43;2.57;;;;;;;22.14;60.20;97581.69;4917673;29;20218;-75
2022/09/04 18:34:58;;;;;;;3.53;2.43;;;;;;;22.26;59.43;97589.41;4932674;29;20186;-78
2022/09/04 18:37:54;;;;;;;3.93;2.87;;;;;;;22.28;59.29;97595.38;4931765;29;20701;-78
2022/09/04 18:40:37;;;;;;;3.03;2.73;;;;;;;22.16;59.65;97600.84;4914720;29;20196;-78
2022/09/04 18:43:40;;;;;;;4.07;2.53;;;;;;;22.18;59.30;97594.50;4932181;29;20282;-78
2022/09/04 18:46:28;;;;;;;2.47;2.27;;;;;;;22.22;59.82;97603.81;4932380;29;20651;-78
2022/09/04 18:49:21;;;;;;;6.53;2.87;;;;;;;22.30;59.18;97609.28;4928234;29;20195;-77
2022/09/04 18:52:17;;;;;;;4.90;3.53;;;;;;;22.35;59.72;97601.84;4893685;29;20210;-80
2022/09/04 18:54:48;;;;;;;4.33;2.70;;;;;;;22.32;59.91;97606.53;4912635;29;20195;-78
2022/09/04 18:57:31;;;;;;;3.73;2.70;;;;;;;21.71;60.96;97616.84;4895256;29;20657;-75
2022/09/04 19:00:11;;;;;;;5.03;2.93;;;;;;;21.90;61.07;97628.56;4895769;29;20698;-79
2022/09/04 19:03:10;;;;;;;4.73;3.30;;;;;;;21.99;61.55;97631.25;4911957;29;20196;-77
2022/09/04 19:05:39;;;;;;;3.80;2.77;;;;;;;22.11;60.42;97624.16;4895543;29;20264;-74
2022/09/04 19:08:20;;;;;;;4.13;3.13;;;;;;;22.08;60.75;97619.97;4911695;29;20220;-78
2022/09/04 19:11:00;;;;;;;6.60;2.93;;;;;;;22.12;60.54;97631.94;4911781;29;20224;-76
2022/09/04 19:13:52;;;;;;;4.77;3.23;;;;;;;22.03;60.69;97637.97;4912581;29;20191;-80
2022/09/04 19:16:42;;;;;;;3.47;2.93;;;;;;;21.80;60.78;97631.91;4895324;29;20286;-80
2022/09/04 19:19:25;;;;;;;3.10;2.80;;;;;;;21.23;61.27;97561.94;4894684;29;20204;-76
2022/09/04 19:22:19;;;;;;;3.67;2.93;;;;;;;21.64;61.08;97631.47;4912620;29;20230;-76
2022/09/04 19:25:10;;;;;;;7.77;3.17;;;;;;;21.48;61.50;97622.28;4911926;29;20226;-76
2022/09/04 19:27:42;;;;;;;3.50;3.17;;;;;;;21.00;63.10;97642.75;4911969;29;20322;-77
2022/09/04 19:30:32;;;;;;;5.63;3.00;;;;;;;21.02;63.62;97636.47;4891912;29;20270;-76
2022/09/04 19:33:25;;;;;;;3.70;3.20;;;;;;;20.87;64.01;97635.00;4911628;29;20194;-74
2022/09/04 19:35:57;;;;;;;5.37;3.33;;;;;;;20.79;64.39;97641.81;4911121;29;20935;-74
2022/09/04 19:38:31;;;;;;;4.20;3.23;;;;;;;20.72;64.59;97628.28;4909598;29;20206;-74
2022/09/04 19:41:29;;;;;;;3.90;3.40;;;;;;;20.66;65.15;97641.91;4911131;29;20679;-72
2022/09/04 19:44:23;;;;;;;5.10;3.40;;;;;;;20.83;64.53;97652.00;4912176;29;20195;-73
2022/09/04 19:47:35;;;;;;;5.97;3.43;;;;;;;20.61;64.15;97611.66;4910211;29;20553;-73
2022/09/04 19:50:37;;;;;;;3.37;3.00;;;;;;;21.06;63.77;97652.88;4911101;29;20683;-74
2022/09/04 19:53:32;;;;;;;4.53;2.93;;;;;;;21.37;62.47;97640.75;4911027;29;20199;-74
2022/09/04 19:56:22;;;;;;;3.70;3.00;;;;;;;21.47;62.25;97646.97;4911614;29;20281;-74
2022/09/04 19:58:55;;;;;;;5.63;3.73;;;;;;;21.33;62.08;97648.06;4910872;29;20229;-75
2022/09/04 20:01:28;;;;;;;6.10;3.30;;;;;;;21.35;62.02;97642.69;4911677;29;20293;-74
2022/09/04 20:04:02;;;;;;;4.53;3.30;;;;;;;21.43;61.61;97645.53;4909971;29;20233;-74
2022/09/04 20:06:38;;;;;;;6.37;3.13;;;;;;;21.45;61.99;97641.00;4893971;29;20213;-73
2022/09/04 20:09:24;;;;;;;4.00;2.87;;;;;;;21.40;62.10;97643.13;4911673;29;20226;-75
2022/09/04 20:12:04;;;;;;;4.40;3.53;;;;;;;21.21;62.77;97653.44;4910934;29;20230;-78
2022/09/04 20:14:41;;;;;;;5.57;3.70;;;;;;;21.27;62.42;97648.53;4911503;29;20192;-74
2022/09/04 20:17:36;;;;;;;3.77;3.10;;;;;;;21.37;62.29;97654.75;4911201;29;20234;-79
2022/09/04 20:20:22;;;;;;;5.30;3.40;;;;;;;21.29;62.95;97653.72;4910653;29;20272;-74
2022/09/04 20:22:55;;;;;;;4.83;3.70;;;;;;;21.38;62.14;97660.88;4911367;29;20786;-75
2022/09/04 20:25:43;;;;;;;4.03;3.40;;;;;;;21.22;63.00;97658.63;4910515;29;20199;-75
2022/09/04 20:28:26;;;;;;;4.03;3.23;;;;;;;21.33;62.67;97665.69;4908271;29;20241;-75
2022/09/04 20:31:20;;;;;;;5.37;3.50;;;;;;;21.30;63.13;97663.28;4909927;29;20199;-74
2022/09/04 20:34:11;;;;;;;4.83;3.80;;;;;;;21.28;63.06;97673.09;4910851;29;20198;-73
2022/09/04 20:36:46;;;;;;;5.00;3.30;;;;;;;21.27;63.05;97680.16;4910736;29;20689;-74
2022/09/04 20:39:23;;;;;;;5.70;3.30;;;;;;;21.30;62.59;97682.56;4911317;29;20290;-77
2022/09/04 20:42:20;;;;;;;4.77;3.43;;;;;;;21.33;62.94;97673.59;4910281;29;20207;-75
2022/09/04 20:44:55;;;;;;;4.00;3.10;;;;;;;21.36;62.70;97663.63;4910237;29;20227;-77
2022/09/04 20:48:12;;;;;;;3.77;3.10;;;;;;;21.27;63.04;97668.81;4910919;29;20238;-75
2022/09/04 20:51:03;;;;;;;3.73;3.10;;;;;;;21.26;63.19;97664.47;4896163;29;20208;-73
2022/09/04 20:54:17;;;;;;;3.77;3.47;;;;;;;21.18;63.82;97661.59;4908322;29;20668;-74
2022/09/04 20:57:06;;;;;;;4.03;3.20;;;;;;;21.22;63.41;97670.94;4890855;29;20699;-77
2022/09/04 21:00:06;;;;;;;4.57;3.67;;;;;;;21.28;63.40;97665.19;4890473;29;20683;-73
2022/09/04 21:03:15;;;;;;;6.87;3.87;;;;;;;21.23;63.28;97672.59;4891417;29;20183;-73
2022/09/04 21:06:05;;;;;;;4.53;3.83;;;;;;;21.14;63.40;97668.94;4893751;29;20283;-79
2022/09/04 21:09:15;;;;;;;4.67;3.67;;;;;;;21.08;63.74;97663.28;4897053;29;20542;-79
2022/09/04 21:11:54;;;;;;;4.67;3.73;;;;;;;21.00;64.57;97654.13;4896068;29;20294;-79
2022/09/04 21:14:36;;;;;;;5.17;3.90;;;;;;;21.04;63.98;97645.06;4891887;29;20233;-78
2022/09/04 21:17:34;;;;;;;4.40;3.53;;;;;;;21.21;63.99;97661.34;4875363;29;20203;-73
2022/09/04 21:20:07;;;;;;;5.47;3.67;;;;;;;21.18;63.63;97664.25;4889746;29;20247;-75
2022/09/04 21:23:04;;;;;;;4.40;3.53;;;;;;;21.23;63.51;97656.81;4890560;29;20291;-75
2022/09/04 21:26:08;;;;;;;5.67;3.47;;;;;;;21.04;63.90;97652.16;4891359;29;20690;-77
2022/09/04 21:29:03;;;;;;;4.73;3.70;;;;;;;20.98;63.83;97658.69;4890792;29;20612;-76
2022/09/04 21:31:39;;;;;;;4.77;3.47;;;;;;;20.94;63.65;97654.63;4891018;29;20195;-75
2022/09/04 21:34:53;;;;;;;3.90;3.50;;;;;;;20.85;64.07;97652.72;4895195;29;20243;-76
2022/09/04 21:37:22;;;;;;;4.03;3.63;;;;;;;20.72;64.47;97657.25;4839603;29;20207;-77
2022/09/04 21:39:55;;;;;;;3.77;3.47;;;;;;;20.56;65.29;97659.38;4906479;29;20639;-75
2022/09/04 21:42:39;;;;;;;4.70;3.47;;;;;;;20.36;65.47;97654.75;4913635;29;20258;-76
2022/09/04 21:45:38;;;;;;;4.73;3.83;;;;;;;20.49;65.43;97652.03;4913865;29;20277;-78
2022/09/04 21:48:31;;;;;;;6.43;3.27;;;;;;;20.41;65.87;97649.13;4914219;29;20785;-80
2022/09/04 21:51:49;;;;;;;4.43;3.70;;;;;;;20.36;65.72;97652.09;4913592;29;20697;-77
2022/09/04 21:55:10;;;;;;;5.93;3.83;;;;;;;20.35;66.07;97657.50;4896991;29;20213;-77
2022/09/04 21:58:07;;;;;;;3.73;3.20;;;;;;;20.49;65.63;97652.03;4873710;29;20795;-76
2022/09/04 22:01:18;;;;;;;6.13;3.73;;;;;;;20.31;65.72;97646.38;4913770;29;20682;-79
2022/09/04 22:04:24;;;;;;;5.80;3.60;;;;;;;20.25;65.84;97644.19;4901704;29;20210;-79
2022/09/04 22:07:06;;;;;;;3.60;3.17;;;;;;;20.24;65.62;97638.09;4911424;29;20249;-72
2022/09/04 22:09:53;;;;;;;4.57;3.60;;;;;;;19.79;66.96;97638.00;4912536;29;20209;-73
2022/09/04 22:13:05;;;;;;;3.60;3.13;;;;;;;19.48;67.65;97640.22;4913261;29;20198;-73
2022/09/04 22:16:01;;;;;;;7.80;5.00;;;;;;;19.67;67.71;97631.84;4894257;29;20697;-74
2022/09/04 22:18:40;;;;;;;6.00;3.60;;;;;;;19.78;67.21;97623.19;4894874;29;20197;-76
2022/09/04 22:21:24;;;;;;;4.33;3.80;;;;;;;19.82;66.75;97606.25;4894106;29;20699;-73
2022/09/04 22:24:05;;;;;;;3.70;3.40;;;;;;;19.89;66.21;97624.06;4898857;29;20195;-73
2022/09/04 22:27:22;;;;;;;3.80;3.30;;;;;;;20.02;65.54;97618.75;4911947;29;20248;-73
2022/09/04 22:30:03;;;;;;;4.30;3.60;;;;;;;20.00;65.74;97618.84;4912980;29;20226;-79
2022/09/04 22:32:52;;;;;;;4.53;3.60;;;;;;;20.09;65.42;97631.31;4913123;29;20592;-78
2022/09/04 22:35:34;;;;;;;5.43;3.90;;;;;;;20.09;65.33;97633.94;4912211;29;20217;-77
2022/09/04 22:38:21;;;;;;;5.30;3.50;;;;;;;20.02;65.29;97640.63;4912419;29;20190;-74
2022/09/04 22:41:25;;;;;;;4.30;3.57;;;;;;;20.00;65.38;97646.94;4913174;29;20237;-77
2022/09/04 22:43:55;;;;;;;4.43;3.23;;;;;;;20.20;64.87;97638.44;4910816;29;20229;-81
2022/09/04 22:46:47;;;;;;;3.90;3.00;;;;;;;20.24;64.84;97630.22;4912497;29;20286;-80
2022/09/04 22:49:38;;;;;;;5.13;3.03;;;;;;;20.39;64.46;97633.47;4912940;29;20642;-74
2022/09/04 22:52:27;;;;;;;3.93;3.53;;;;;;;20.39;64.17;97625.59;4911433;29;20666;-75
2022/09/04 22:55:17;;;;;;;4.40;3.47;;;;;;;20.37;64.42;97638.03;4912138;29;20187;-72
2022/09/04 22:58:13;;;;;;;3.87;3.33;;;;;;;20.48;63.71;97643.31;4911331;29;20253;-73
2022/09/04 23:01:15;;;;;;;8.03;3.77;;;;;;;20.42;64.09;97643.78;4912462;29;20741;-80
2022/09/04 23:04:21;;;;;;;5.30;3.80;;;;;;;20.43;64.27;97642.81;4905430;29;20669;-74
2022/09/04 23:07:09;;;;;;;4.13;3.30;;;;;;;20.34;64.77;97643.50;4912467;29;20200;-76
2022/09/04 23:09:58;;;;;;;3.90;3.50;;;;;;;20.33;64.79;97649.72;4911553;29;20690;-73
2022/09/04 23:12:51;;;;;;;4.47;3.43;;;;;;;20.26;65.18;97657.22;4912201;29;20193;-73
2022/09/04 23:16:23;;;;;;;4.30;3.20;;;;;;;20.26;64.69;97664.28;4911154;29;20627;-76
2022/09/04 23:19:22;;;;;;;3.40;3.10;;;;;;;20.34;64.74;97666.38;4912723;29;20261;-74
2022/09/04 23:22:27;;;;;;;5.27;3.40;;;;;;;20.28;64.87;97676.38;4913461;29;20558;-76
2022/09/04 23:25:44;;;;;;;4.83;3.70;;;;;;;20.24;65.08;97674.06;4911645;29;20194;-75
2022/09/04 23:28:39;;;;;;;5.80;4.00;;;;;;;20.24;65.19;97663.56;4911847;29;20237;-74
2022/09/04 23:31:24;;;;;;;5.67;3.50;;;;;;;19.98;66.29;97660.22;4912316;29;20194;-74
2022/09/04 23:33:58;;;;;;;5.00;3.80;;;;;;;20.06;66.15;97668.38;4911578;29;20194;-73
2022/09/04 23:36:44;;;;;;;5.47;3.67;;;;;;;19.87;66.75;97669.81;4912084;29;20248;-80
2022/09/04 23:39:29;;;;;;;4.50;3.47;;;;;;;19.97;66.81;97676.09;4911823;29;20701;-74
2022/09/04 23:42:05;;;;;;;5.93;3.37;;;;;;;20.02;66.53;97687.09;4911421;29;20202;-75
2022/09/04 23:45:01;;;;;;;5.30;3.90;;;;;;;19.84;67.35;97680.56;4910724;29;20296;-75
2022/09/04 23:48:13;;;;;;;4.13;3.50;;;;;;;19.87;66.89;97681.19;4911776;29;20459;-74
2022/09/04 23:50:53;;;;;;;5.10;3.87;;;;;;;19.61;67.61;97676.97;4911261;29;20809;-74
2022/09/04 23:53:46;;;;;;;8.73;4.27;;;;;;;19.66;68.35;97674.84;4910569;29;20202;-80
2022/09/04 23:56:44;;;;;;;4.87;4.03;;;;;;;19.42;69.11;97674.81;4909718;29;20198;-74
2022/09/04 23:59:39;;;;;;;4.70;4.23;;;;;;;19.49;68.48;97673.41;4910584;29;20232;-76
